Time;durP1;ratioP1;P1;durP2;ratioP2;P2;SDS_P1;SDS_P2;PMS_P1;PMS_P2;Temp;Humidity;BMP_temperature;BMP_pressure;BME280_temperature;BME280_humidity;BME280_pressure;Samples;Min_cycle;Max_cycle;Signal;HPM_P1;HPM_P2
2022/08/21 00:00:37;;;;;;;3.63;1.70;;;23.00;85.80;;;;;;5034451;28;20029;-82
2022/08/21 00:03:06;;;;;;;2.05;1.38;;;23.10;85.80;;;;;;5034390;28;20025;-82
2022/08/21 00:05:35;;;;;;;2.40;1.40;;;23.10;85.80;;;;;;5016911;28;20027;-82
2022/08/21 00:08:00;;;;;;;3.08;1.67;;;23.10;85.70;;;;;;5017212;28;20025;-82
2022/08/21 00:10:26;;;;;;;2.45;1.60;;;23.10;85.60;;;;;;5016086;28;20116;-82
2022/08/21 00:12:52;;;;;;;2.47;1.48;;;23.10;85.60;;;;;;5037139;28;20025;-83
2022/08/21 00:15:22;;;;;;;2.65;1.45;;;23.10;85.40;;;;;;5020949;28;20029;-83
2022/08/21 00:17:48;;;;;;;2.00;1.33;;;23.10;85.40;;;;;;5020464;28;20037;-82
2022/08/21 00:20:16;;;;;;;2.25;1.30;;;23.10;85.40;;;;;;5037901;28;20024;-82
2022/08/21 00:22:42;;;;;;;2.97;1.40;;;23.10;85.40;;;;;;5019773;28;20060;-82
2022/08/21 00:25:09;;;;;;;2.17;1.40;;;23.10;85.60;;;;;;5037447;28;20029;-82
2022/08/21 00:27:35;;;;;;;1.95;1.45;;;23.10;85.70;;;;;;5037505;28;20083;-83
2022/08/21 00:30:01;;;;;;;2.70;1.70;;;23.10;85.80;;;;;;5019572;28;20099;-83
2022/08/21 00:32:28;;;;;;;3.63;1.60;;;23.10;85.90;;;;;;5019153;28;20026;-82
2022/08/21 00:34:53;;;;;;;2.95;1.38;;;23.00;85.90;;;;;;5018763;28;20037;-83
2022/08/21 00:37:20;;;;;;;2.63;1.40;;;23.10;86.00;;;;;;5018321;28;20156;-82
2022/08/21 00:39:46;;;;;;;4.47;1.52;;;23.00;86.00;;;;;;5018410;28;20022;-82
2022/08/21 00:42:14;;;;;;;3.85;1.33;;;23.00;86.00;;;;;;5036224;28;20075;-82
2022/08/21 00:44:46;;;;;;;7.82;1.83;;;23.00;86.10;;;;;;5018911;28;20025;-82
2022/08/21 00:47:12;;;;;;;6.57;1.77;;;23.00;85.70;;;;;;5036548;28;20076;-83
2022/08/21 00:49:39;;;;;;;5.68;1.85;;;23.00;85.90;;;;;;5017528;28;20512;-82
2022/08/21 00:52:07;;;;;;;6.55;1.40;;;23.00;85.80;;;;;;5017418;28;20025;-82
2022/08/21 00:54:33;;;;;;;5.18;1.65;;;23.10;85.80;;;;;;5018125;28;20120;-82
2022/08/21 00:57:10;;;;;;;6.53;1.67;;;23.10;85.70;;;;;;5017219;28;20030;-82
2022/08/21 00:59:38;;;;;;;5.10;1.67;;;23.10;85.60;;;;;;5016988;28;20365;-82
2022/08/21 01:02:07;;;;;;;7.15;1.90;;;23.10;85.50;;;;;;5017612;28;20033;-82
2022/08/21 01:04:32;;;;;;;4.90;1.58;;;23.10;85.40;;;;;;5017397;28;20034;-82
2022/08/21 01:06:58;;;;;;;5.47;1.67;;;23.10;85.50;;;;;;5017192;28;20033;-82
2022/08/21 01:09:23;;;;;;;4.75;1.65;;;23.10;85.60;;;;;;5016603;28;20037;-82
2022/08/21 01:11:49;;;;;;;6.53;2.13;;;23.10;85.60;;;;;;5017148;28;20053;-82
2022/08/21 01:14:17;;;;;;;2.72;1.40;;;23.00;85.70;;;;;;5037624;28;20076;-82
2022/08/21 01:16:45;;;;;;;3.25;1.65;;;23.00;85.90;;;;;;5020945;28;20500;-82
2022/08/21 01:19:12;;;;;;;4.70;1.60;;;23.00;86.00;;;;;;5038508;28;20038;-82
2022/08/21 01:21:38;;;;;;;6.53;1.63;;;23.00;86.00;;;;;;5019980;28;20034;-82
2022/08/21 01:24:04;;;;;;;6.15;1.77;;;22.90;86.00;;;;;;5020181;28;20076;-82
2022/08/21 01:26:34;;;;;;;6.50;2.00;;;23.00;86.10;;;;;;5020526;28;20053;-82
2022/08/21 01:29:02;;;;;;;2.83;1.42;;;23.00;86.20;;;;;;5019970;28;20025;-82
2022/08/21 01:31:29;;;;;;;6.22;1.70;;;23.00;86.10;;;;;;5020197;28;20029;-82
2022/08/21 01:33:56;;;;;;;3.97;1.70;;;23.00;86.10;;;;;;5019700;28;20025;-83
2022/08/21 01:36:22;;;;;;;3.85;1.38;;;23.00;86.00;;;;;;5023143;28;20030;-82
2022/08/21 01:38:48;;;;;;;4.13;1.50;;;23.00;86.00;;;;;;5023199;28;20025;-82
2022/08/21 01:41:14;;;;;;;5.80;1.40;;;23.00;85.90;;;;;;5022481;28;20036;-82
2022/08/21 01:43:41;;;;;;;3.28;1.50;;;23.00;85.80;;;;;;5022396;28;20028;-82
2022/08/21 01:46:06;;;;;;;3.42;1.65;;;23.00;85.70;;;;;;5022574;28;20025;-83
2022/08/21 01:48:32;;;;;;;3.95;1.60;;;23.10;86.20;;;;;;5039893;28;20044;-82
2022/08/21 01:50:58;;;;;;;4.22;1.70;;;23.00;85.70;;;;;;5021668;28;20036;-82
2022/08/21 01:53:24;;;;;;;5.68;1.92;;;23.10;85.80;;;;;;5021982;28;20029;-82
2022/08/21 01:55:50;;;;;;;2.72;1.40;;;23.00;85.90;;;;;;5039765;28;20025;-82
2022/08/21 01:58:15;;;;;;;4.15;1.42;;;22.90;86.00;;;;;;5021885;28;20021;-82
2022/08/21 02:00:41;;;;;;;3.65;1.50;;;22.90;86.10;;;;;;5020878;28;20167;-82
2022/08/21 02:03:07;;;;;;;3.30;1.70;;;23.00;86.20;;;;;;5021714;28;20017;-82
2022/08/21 02:05:32;;;;;;;3.55;1.50;;;23.00;86.30;;;;;;5020502;28;20021;-82
2022/08/21 02:07:58;;;;;;;3.85;1.63;;;23.00;86.20;;;;;;5038966;28;20508;-82
2022/08/21 02:10:31;;;;;;;3.10;1.55;;;22.90;86.30;;;;;;5020371;28;20412;-82
2022/08/21 02:12:56;;;;;;;2.83;1.50;;;22.90;86.40;;;;;;5038400;28;20018;-82
2022/08/21 02:15:22;;;;;;;3.58;1.80;;;22.90;86.30;;;;;;5038259;28;20029;-82
2022/08/21 02:17:54;;;;;;;3.92;1.70;;;22.90;86.30;;;;;;5019876;28;20025;-82
2022/08/21 02:20:32;;;;;;;2.78;1.40;;;23.00;86.30;;;;;;5036959;28;20021;-82
2022/08/21 02:22:58;;;;;;;4.00;1.77;;;22.90;86.10;;;;;;5037423;28;20040;-84
2022/08/21 02:25:25;;;;;;;2.97;1.40;;;23.00;86.10;;;;;;5019533;28;20022;-81
2022/08/21 02:27:52;;;;;;;3.38;1.40;;;23.00;86.10;;;;;;5036357;28;20118;-82
2022/08/21 02:30:33;;;;;;;3.58;1.30;;;23.00;85.90;;;;;;5036028;28;20100;-81
2022/08/21 02:32:59;;;;;;;2.40;1.40;;;23.00;85.90;;;;;;5018951;28;20031;-82
2022/08/21 02:35:25;;;;;;;3.25;1.63;;;23.00;86.00;;;;;;5018732;28;20183;-82
2022/08/21 02:37:57;;;;;;;3.10;1.50;;;23.00;86.00;;;;;;5020346;28;20049;-82
2022/08/21 02:40:26;;;;;;;3.15;1.30;;;22.90;86.10;;;;;;5018663;28;20021;-82
2022/08/21 02:42:52;;;;;;;3.85;1.63;;;23.00;86.30;;;;;;5036134;28;20026;-81
2022/08/21 02:45:19;;;;;;;3.90;1.45;;;22.90;86.30;;;;;;5014142;28;20040;-82
2022/08/21 02:47:53;;;;;;;3.47;1.52;;;22.90;86.40;;;;;;5012524;28;20056;-82
2022/08/21 02:50:29;;;;;;;2.13;1.20;;;22.90;86.50;;;;;;5039912;28;20060;-81
2022/08/21 02:52:56;;;;;;;2.92;1.50;;;22.90;86.60;;;;;;5020960;28;20026;-83
2022/08/21 02:55:25;;;;;;;3.53;1.50;;;22.90;86.60;;;;;;5038864;28;20032;-82
2022/08/21 02:57:51;;;;;;;2.35;1.23;;;22.90;86.60;;;;;;5021010;28;20400;-82
2022/08/21 03:00:17;;;;;;;3.05;1.33;;;22.90;86.60;;;;;;5038079;28;20026;-82
2022/08/21 03:02:42;;;;;;;2.78;1.48;;;22.90;86.60;;;;;;5020797;28;20029;-82
2022/08/21 03:05:09;;;;;;;2.38;1.25;;;22.90;86.50;;;;;;5000385;28;20030;-82
2022/08/21 03:07:36;;;;;;;2.70;1.35;;;22.90;86.40;;;;;;5019576;28;20400;-82
2022/08/21 03:10:03;;;;;;;3.05;1.50;;;22.90;86.30;;;;;;5019555;28;20021;-82
2022/08/21 03:12:29;;;;;;;2.97;1.42;;;23.00;86.30;;;;;;5037192;28;20030;-83
2022/08/21 03:14:54;;;;;;;2.08;1.25;;;23.00;86.20;;;;;;5037036;28;20044;-82
2022/08/21 03:17:20;;;;;;;4.82;1.58;;;22.90;86.20;;;;;;5019253;28;20520;-82
2022/08/21 03:19:45;;;;;;;2.53;1.40;;;23.00;86.20;;;;;;5018295;28;20112;-82
2022/08/21 03:22:11;;;;;;;3.00;1.45;;;23.00;86.30;;;;;;5019010;28;20036;-82
2022/08/21 03:24:37;;;;;;;2.83;1.45;;;22.90;86.30;;;;;;5018776;28;20044;-81
2022/08/21 03:27:03;;;;;;;4.07;1.50;;;22.90;86.40;;;;;;5018663;28;20053;-82
2022/08/21 03:29:28;;;;;;;2.38;1.30;;;22.90;86.60;;;;;;5036256;28;20053;-82
2022/08/21 03:31:54;;;;;;;2.05;1.35;;;22.90;86.70;;;;;;5036286;28;20111;-82
2022/08/21 03:34:21;;;;;;;2.83;1.50;;;22.90;86.70;;;;;;5038653;28;20033;-82
2022/08/21 03:36:48;;;;;;;2.83;1.30;;;22.80;86.70;;;;;;5019795;28;20032;-82
2022/08/21 03:39:13;;;;;;;4.50;1.73;;;22.80;86.80;;;;;;5038430;28;20041;-81
2022/08/21 03:41:39;;;;;;;2.72;1.55;;;22.80;86.80;;;;;;5038189;28;20029;-82
2022/08/21 03:44:04;;;;;;;2.80;1.42;;;22.80;86.80;;;;;;5019808;28;20439;-81
2022/08/21 03:46:30;;;;;;;2.63;1.40;;;22.80;86.80;;;;;;5019422;28;20030;-82
2022/08/21 03:48:55;;;;;;;3.65;1.55;;;22.90;86.80;;;;;;5019355;28;20125;-82
2022/08/21 03:51:21;;;;;;;2.65;1.20;;;22.90;86.70;;;;;;5019231;28;20078;-82
2022/08/21 03:53:46;;;;;;;4.50;1.60;;;22.90;86.60;;;;;;5019000;28;20489;-82
2022/08/21 03:56:12;;;;;;;3.25;1.63;;;23.00;86.60;;;;;;5019249;28;20100;-82
2022/08/21 03:58:38;;;;;;;2.47;1.40;;;22.90;86.50;;;;;;5019058;28;20045;-82
2022/08/21 04:01:05;;;;;;;2.38;1.20;;;22.90;86.40;;;;;;5036071;28;20017;-82
2022/08/21 04:03:31;;;;;;;2.60;1.25;;;22.90;86.40;;;;;;5020112;28;20117;-82
2022/08/21 04:05:57;;;;;;;2.50;1.45;;;22.90;86.40;;;;;;5036316;28;20073;-82
2022/08/21 04:08:23;;;;;;;2.45;1.30;;;22.90;86.50;;;;;;5036281;28;20037;-81
2022/08/21 04:10:52;;;;;;;3.17;1.60;;;22.80;86.60;;;;;;5036090;28;20065;-82
2022/08/21 04:13:17;;;;;;;2.22;1.33;;;22.90;86.80;;;;;;5017871;28;20120;-82
2022/08/21 04:15:43;;;;;;;2.55;1.25;;;22.80;86.80;;;;;;5036048;28;20052;-82
2022/08/21 04:18:09;;;;;;;3.33;1.60;;;22.80;86.90;;;;;;5018232;28;20120;-82
2022/08/21 04:20:34;;;;;;;4.32;1.40;;;22.80;86.90;;;;;;5017475;28;20083;-82
2022/08/21 04:23:01;;;;;;;2.40;1.40;;;22.80;87.50;;;;;;5017655;28;20055;-83
2022/08/21 04:25:27;;;;;;;3.25;1.52;;;22.80;87.00;;;;;;5035625;28;20090;-82
2022/08/21 04:27:53;;;;;;;2.53;1.50;;;22.80;87.00;;;;;;5035512;28;20528;-82
2022/08/21 04:30:21;;;;;;;2.22;1.30;;;22.80;87.00;;;;;;5017193;28;20385;-82
2022/08/21 04:32:50;;;;;;;2.78;1.50;;;22.80;87.00;;;;;;5035550;28;20018;-82
2022/08/21 04:35:19;;;;;;;3.22;1.45;;;22.80;87.00;;;;;;5017144;28;20131;-82
2022/08/21 04:37:45;;;;;;;3.55;1.60;;;22.80;86.80;;;;;;5017294;28;20105;-82
2022/08/21 04:40:13;;;;;;;2.17;1.20;;;22.90;86.80;;;;;;5034922;28;20029;-82
2022/08/21 04:42:49;;;;;;;2.17;1.40;;;22.90;86.70;;;;;;5017544;28;20018;-81
2022/08/21 04:45:27;;;;;;;2.97;1.48;;;22.90;86.60;;;;;;5016807;28;20076;-82
2022/08/21 04:47:56;;;;;;;3.05;1.40;;;22.90;86.50;;;;;;4999838;28;20050;-82
2022/08/21 04:50:42;;;;;;;3.65;1.50;;;22.90;86.60;;;;;;5011176;28;20034;-81
2022/08/21 04:53:41;;;;;;;2.35;1.40;;;22.90;86.70;;;;;;5018319;28;20033;-82
2022/08/21 04:56:26;;;;;;;3.15;1.30;;;22.80;86.70;;;;;;5041205;28;20032;-82
2022/08/21 04:58:55;;;;;;;3.25;1.40;;;22.80;86.80;;;;;;5023199;28;20111;-81
2022/08/21 05:01:24;;;;;;;2.42;1.38;;;22.80;86.90;;;;;;5023330;28;20022;-82
2022/08/21 05:03:52;;;;;;;2.45;1.45;;;22.80;87.00;;;;;;5035090;28;20045;-82
2022/08/21 05:06:17;;;;;;;2.03;1.38;;;22.80;87.00;;;;;;5040842;28;20069;-82
2022/08/21 05:08:45;;;;;;;2.22;1.30;;;22.80;87.00;;;;;;5022528;28;20025;-82
2022/08/21 05:11:11;;;;;;;3.10;1.55;;;22.80;87.00;;;;;;5022173;28;20064;-83
2022/08/21 05:13:36;;;;;;;3.63;1.30;;;22.80;87.00;;;;;;5041627;28;20029;-83
2022/08/21 05:16:02;;;;;;;2.47;1.50;;;22.80;86.90;;;;;;5040442;28;20392;-83
2022/08/21 05:18:28;;;;;;;2.58;1.50;;;22.80;86.90;;;;;;5040557;28;20060;-82
2022/08/21 05:20:54;;;;;;;2.83;1.40;;;22.80;86.90;;;;;;5015189;28;20034;-83
2022/08/21 05:23:19;;;;;;;1.70;1.20;;;22.80;86.70;;;;;;5003344;28;20620;-82
2022/08/21 05:25:45;;;;;;;3.28;1.45;;;22.90;86.70;;;;;;5019372;28;20025;-82
2022/08/21 05:28:10;;;;;;;2.38;1.60;;;22.90;86.50;;;;;;5021902;28;20052;-82
2022/08/21 05:30:37;;;;;;;2.40;1.30;;;22.90;86.50;;;;;;5021061;28;20036;-82
2022/08/21 05:33:05;;;;;;;3.10;1.50;;;22.90;86.50;;;;;;5021550;28;20028;-82
2022/08/21 05:35:32;;;;;;;2.63;1.30;;;22.90;86.50;;;;;;5021796;28;20030;-82
2022/08/21 05:37:59;;;;;;;1.77;1.33;;;22.90;86.50;;;;;;5020903;28;20025;-82
2022/08/21 05:40:25;;;;;;;2.47;1.50;;;22.90;86.50;;;;;;5020247;28;20087;-82
2022/08/21 05:42:53;;;;;;;1.77;1.27;;;22.90;86.60;;;;;;5038392;28;20075;-82
2022/08/21 05:45:19;;;;;;;3.00;1.50;;;22.80;86.60;;;;;;5020548;28;20021;-82
2022/08/21 05:47:44;;;;;;;2.15;1.20;;;22.80;86.60;;;;;;5020424;28;20095;-82
2022/08/21 05:50:10;;;;;;;2.70;1.55;;;22.90;86.60;;;;;;5038343;28;20030;-82
2022/08/21 05:52:35;;;;;;;2.53;1.40;;;22.90;86.60;;;;;;5026251;28;20061;-81
2022/08/21 05:55:01;;;;;;;3.47;1.65;;;22.90;86.60;;;;;;5038106;28;20033;-81
2022/08/21 05:57:27;;;;;;;2.80;1.50;;;22.90;86.40;;;;;;5019685;28;20116;-82
2022/08/21 05:59:52;;;;;;;3.00;1.63;;;22.90;87.00;;;;;;5036154;28;20018;-82
2022/08/21 06:02:19;;;;;;;1.85;1.30;;;22.90;86.40;;;;;;5037923;28;20100;-82
2022/08/21 06:04:45;;;;;;;2.28;1.40;;;22.90;86.40;;;;;;5019234;28;20025;-81
2022/08/21 06:07:11;;;;;;;2.65;1.60;;;22.90;86.20;;;;;;5020102;28;20507;-81
2022/08/21 06:09:37;;;;;;;2.83;1.55;;;23.00;86.20;;;;;;5019373;28;20029;-81
2022/08/21 06:12:08;;;;;;;2.38;1.55;;;23.00;86.10;;;;;;5037537;28;20071;-82
2022/08/21 06:14:34;;;;;;;2.70;1.60;;;23.00;85.90;;;;;;5037052;28;20108;-82
2022/08/21 06:17:09;;;;;;;2.15;1.38;;;23.00;85.80;;;;;;5019302;28;20029;-82
2022/08/21 06:19:35;;;;;;;2.60;1.40;;;23.10;85.80;;;;;;5036919;28;20519;-83
2022/08/21 06:22:01;;;;;;;3.15;1.80;;;23.10;85.80;;;;;;5018929;28;20136;-82
2022/08/21 06:24:27;;;;;;;2.83;1.50;;;23.10;85.80;;;;;;5019060;28;20068;-82
2022/08/21 06:26:54;;;;;;;2.47;1.50;;;23.10;85.80;;;;;;5036528;28;20025;-82
2022/08/21 06:29:19;;;;;;;2.35;1.40;;;23.10;85.80;;;;;;5036438;28;20053;-79
2022/08/21 06:31:47;;;;;;;2.13;1.50;;;23.10;85.90;;;;;;5018909;28;20029;-82
2022/08/21 06:34:13;;;;;;;3.17;1.67;;;23.00;85.80;;;;;;5018252;28;20365;-82
2022/08/21 06:36:39;;;;;;;4.03;1.67;;;23.10;85.80;;;;;;5030342;28;20028;-82
2022/08/21 06:39:04;;;;;;;3.85;1.73;;;23.10;85.60;;;;;;5018037;28;20387;-81
2022/08/21 06:41:30;;;;;;;2.75;1.67;;;23.10;85.60;;;;;;5030537;28;20026;-81
2022/08/21 06:43:56;;;;;;;2.20;1.50;;;23.10;85.60;;;;;;5011277;28;20026;-81
2022/08/21 06:46:24;;;;;;;2.45;1.60;;;23.10;85.60;;;;;;5014724;28;20025;-81
2022/08/21 06:48:50;;;;;;;2.75;1.50;;;23.10;85.60;;;;;;5035599;28;20515;-79
2022/08/21 06:51:15;;;;;;;2.60;1.40;;;23.20;85.50;;;;;;5035788;28;20029;-83
2022/08/21 06:53:41;;;;;;;2.30;1.48;;;23.20;85.30;;;;;;5021365;28;20045;-82
2022/08/21 06:56:07;;;;;;;2.30;1.48;;;23.20;85.10;;;;;;5021159;28;20060;-83
2022/08/21 06:58:32;;;;;;;3.45;1.60;;;23.30;84.90;;;;;;5020299;28;20041;-82
2022/08/21 07:00:58;;;;;;;2.25;1.50;;;23.30;84.70;;;;;;5018842;28;20488;-81
2022/08/21 07:03:28;;;;;;;2.63;1.40;;;23.30;84.80;;;;;;5020890;28;20025;-81
2022/08/21 07:05:56;;;;;;;2.30;1.50;;;23.30;84.80;;;;;;5016891;28;20087;-81
2022/08/21 07:08:22;;;;;;;2.55;1.70;;;23.30;84.80;;;;;;5015117;28;20615;-81
2022/08/21 07:10:48;;;;;;;2.83;1.50;;;23.30;84.80;;;;;;5016657;28;20028;-82
2022/08/21 07:13:14;;;;;;;2.08;1.42;;;23.30;84.80;;;;;;5006979;28;20021;-81
2022/08/21 07:15:40;;;;;;;2.08;1.52;;;23.30;84.80;;;;;;5019359;28;20088;-82
2022/08/21 07:18:06;;;;;;;3.28;1.70;;;23.30;84.70;;;;;;5037710;28;20025;-81
2022/08/21 07:20:33;;;;;;;4.07;2.00;;;23.30;84.60;;;;;;5019884;28;20057;-81
2022/08/21 07:23:02;;;;;;;2.95;1.70;;;23.30;84.40;;;;;;5019305;28;20033;-81
2022/08/21 07:25:27;;;;;;;2.85;1.80;;;23.40;84.20;;;;;;5018707;28;20033;-81
2022/08/21 07:27:53;;;;;;;3.85;1.70;;;23.40;84.10;;;;;;5036810;28;20048;-82
2022/08/21 07:30:19;;;;;;;4.13;1.85;;;23.40;83.90;;;;;;5018355;28;20121;-82
2022/08/21 07:32:45;;;;;;;5.07;1.98;;;23.40;84.10;;;;;;5020300;28;20109;-82
2022/08/21 07:35:10;;;;;;;3.08;2.00;;;23.50;84.10;;;;;;5020796;28;20075;-83
2022/08/21 07:37:36;;;;;;;2.70;1.60;;;23.50;83.70;;;;;;5038111;28;20034;-82
2022/08/21 07:40:02;;;;;;;3.40;1.95;;;23.60;83.60;;;;;;5018881;28;20033;-82
2022/08/21 07:42:27;;;;;;;3.95;2.35;;;23.60;83.30;;;;;;5020292;28;20014;-81
2022/08/21 07:44:54;;;;;;;4.32;1.95;;;23.70;83.20;;;;;;5019165;28;20057;-81
2022/08/21 07:47:20;;;;;;;3.55;2.00;;;23.70;83.00;;;;;;5013474;28;20112;-82
2022/08/21 07:49:46;;;;;;;2.92;1.73;;;23.70;82.90;;;;;;5017862;28;20048;-82
2022/08/21 07:52:11;;;;;;;3.28;2.05;;;23.70;82.90;;;;;;5018946;28;20116;-81
2022/08/21 07:54:37;;;;;;;3.30;2.05;;;23.70;82.70;;;;;;5018648;28;20044;-81
2022/08/21 07:57:03;;;;;;;3.17;2.10;;;23.70;82.60;;;;;;5036137;28;20025;-81
2022/08/21 07:59:28;;;;;;;4.97;2.15;;;23.70;82.60;;;;;;5035945;28;20029;-81
2022/08/21 08:01:54;;;;;;;3.80;2.20;;;23.70;82.60;;;;;;5015024;28;20100;-81
2022/08/21 08:04:19;;;;;;;4.63;2.22;;;23.70;82.40;;;;;;5014332;28;20033;-81
2022/08/21 08:06:45;;;;;;;4.95;2.45;;;23.70;82.20;;;;;;5017614;28;20420;-81
2022/08/21 08:09:11;;;;;;;4.10;2.50;;;23.70;82.20;;;;;;5017535;28;20025;-81
2022/08/21 08:11:38;;;;;;;5.78;2.70;;;23.80;82.40;;;;;;5017540;28;20127;-81
2022/08/21 08:14:04;;;;;;;5.47;3.10;;;23.80;82.30;;;;;;5018890;28;20124;-82
2022/08/21 08:16:29;;;;;;;4.80;2.72;;;23.80;82.50;;;;;;5020353;28;20026;-82
2022/08/21 08:18:55;;;;;;;5.55;2.97;;;23.80;82.50;;;;;;5020457;28;20387;-81
2022/08/21 08:21:21;;;;;;;4.47;2.65;;;23.80;82.60;;;;;;5019737;28;20040;-82
2022/08/21 08:23:47;;;;;;;4.45;2.63;;;23.80;82.40;;;;;;5019121;28;20041;-82
2022/08/21 08:26:13;;;;;;;5.30;2.70;;;23.90;82.30;;;;;;5019516;28;20458;-82
2022/08/21 08:28:38;;;;;;;4.80;2.60;;;24.00;82.20;;;;;;5037004;28;20025;-82
2022/08/21 08:31:04;;;;;;;4.30;2.70;;;24.00;82.00;;;;;;5019006;28;20029;-82
2022/08/21 08:33:30;;;;;;;4.97;2.75;;;24.00;81.90;;;;;;5018839;28;20056;-82
2022/08/21 08:35:56;;;;;;;3.75;2.50;;;24.00;81.70;;;;;;5036599;28;20029;-82
2022/08/21 08:38:24;;;;;;;3.53;2.35;;;24.00;81.80;;;;;;5036694;28;20030;-81
2022/08/21 08:41:16;;;;;;;4.93;2.78;;;24.00;81.80;;;;;;5017993;28;20503;-81
2022/08/21 08:43:50;;;;;;;3.85;2.58;;;24.00;81.70;;;;;;5018087;28;20427;-81
2022/08/21 08:46:18;;;;;;;5.65;2.63;;;24.00;81.80;;;;;;5027313;28;20033;-81
2022/08/21 08:48:58;;;;;;;4.45;2.80;;;24.00;81.40;;;;;;5007682;28;20079;-80
2022/08/21 08:51:42;;;;;;;4.20;2.73;;;24.00;81.50;;;;;;5017574;28;20029;-79
2022/08/21 08:54:12;;;;;;;5.03;2.90;;;24.00;81.50;;;;;;5015969;28;20686;-80
2022/08/21 08:56:38;;;;;;;5.72;3.03;;;24.10;81.60;;;;;;5017773;28;20022;-80
2022/08/21 08:59:22;;;;;;;4.75;2.90;;;24.10;81.70;;;;;;5017151;28;20113;-80
2022/08/21 09:01:48;;;;;;;4.70;2.67;;;24.10;81.70;;;;;;5034229;28;20021;-80
2022/08/21 09:04:20;;;;;;;5.35;3.22;;;24.10;81.60;;;;;;5016929;28;20089;-80
2022/08/21 09:06:53;;;;;;;4.95;2.65;;;24.10;81.80;;;;;;5016982;28;20029;-80
2022/08/21 09:09:30;;;;;;;4.47;2.67;;;24.10;81.70;;;;;;5016940;28;20026;-81
2022/08/21 09:12:14;;;;;;;3.85;2.50;;;24.10;81.50;;;;;;5016515;28;20021;-80
2022/08/21 09:15:06;;;;;;;4.60;2.50;;;24.20;81.40;;;;;;5014512;28;20059;-80
2022/08/21 09:17:51;;;;;;;4.53;2.80;;;24.20;81.20;;;;;;4997180;28;20516;-81
2022/08/21 09:20:47;;;;;;;4.03;2.63;;;24.30;81.10;;;;;;5014028;28;20029;-81
2022/08/21 09:23:43;;;;;;;4.72;2.70;;;24.30;80.90;;;;;;5010622;28;20029;-80
2022/08/21 09:26:14;;;;;;;5.40;3.00;;;24.30;81.00;;;;;;5016706;28;20467;-80
2022/08/21 09:28:41;;;;;;;5.20;3.10;;;24.30;81.00;;;;;;5016591;28;20029;-80
2022/08/21 09:31:11;;;;;;;4.90;2.70;;;24.30;80.90;;;;;;5034000;28;20025;-81
2022/08/21 09:33:37;;;;;;;4.95;2.90;;;24.30;80.90;;;;;;5016879;28;20603;-81
2022/08/21 09:36:04;;;;;;;4.38;2.70;;;24.30;80.90;;;;;;5000347;28;20018;-80
2022/08/21 09:38:34;;;;;;;4.75;2.63;;;24.30;81.00;;;;;;5000388;28;20052;-81
2022/08/21 09:41:08;;;;;;;4.95;2.55;;;24.30;81.20;;;;;;5010426;28;20045;-81
2022/08/21 09:43:34;;;;;;;3.90;2.60;;;24.30;81.20;;;;;;5019528;28;20025;-81
2022/08/21 09:46:03;;;;;;;5.25;3.00;;;24.30;81.20;;;;;;5020344;28;20029;-81
2022/08/21 09:48:29;;;;;;;4.82;2.60;;;24.20;81.30;;;;;;5037281;28;20025;-81
2022/08/21 09:51:07;;;;;;;5.15;2.90;;;24.20;81.40;;;;;;5019286;28;20024;-84
2022/08/21 09:53:33;;;;;;;4.22;2.55;;;24.20;81.50;;;;;;5022925;28;20040;-80
2022/08/21 09:58:59;;;;;;;4.57;2.70;;;24.10;81.30;;;;;;5039923;28;20452;-81
2022/08/21 10:01:25;;;;;;;4.53;2.50;;;24.30;81.20;;;;;;5021505;28;20021;-81
2022/08/21 10:04:10;;;;;;;3.70;2.33;;;24.30;81.00;;;;;;5040742;28;20037;-79
2022/08/21 10:06:35;;;;;;;4.70;2.75;;;24.40;80.90;;;;;;5020622;28;20032;-81
2022/08/21 10:09:14;;;;;;;4.22;2.50;;;24.30;80.90;;;;;;5020744;28;20037;-80
2022/08/21 10:11:50;;;;;;;3.90;2.50;;;24.30;81.10;;;;;;5017707;28;20057;-80
2022/08/21 10:14:52;;;;;;;5.10;3.10;;;24.30;81.20;;;;;;5036436;28;20021;-80
2022/08/21 10:17:44;;;;;;;4.13;2.50;;;24.30;81.00;;;;;;5019228;28;20105;-80
2022/08/21 10:20:19;;;;;;;3.92;2.65;;;24.20;81.20;;;;;;5018583;28;20029;-80
2022/08/21 10:23:18;;;;;;;3.75;2.40;;;24.20;81.50;;;;;;5001338;28;20029;-81
2022/08/21 10:25:57;;;;;;;5.82;2.53;;;24.10;81.40;;;;;;5014821;28;20025;-81
2022/08/21 10:28:37;;;;;;;5.15;2.60;;;24.10;81.60;;;;;;5037615;28;20030;-80
2022/08/21 10:31:37;;;;;;;3.53;2.40;;;24.10;82.00;;;;;;5008979;28;20537;-80
2022/08/21 10:34:24;;;;;;;3.83;2.58;;;24.00;82.00;;;;;;4998811;28;20033;-80
2022/08/21 10:37:16;;;;;;;5.10;2.70;;;24.00;82.30;;;;;;5023706;28;20512;-81
2022/08/21 10:39:53;;;;;;;3.78;2.33;;;24.00;82.20;;;;;;5022113;28;20052;-80
2022/08/21 10:42:41;;;;;;;3.55;2.50;;;24.10;82.20;;;;;;5020149;28;20022;-80
2022/08/21 10:45:20;;;;;;;3.22;2.28;;;24.10;82.00;;;;;;5036909;28;20017;-81
2022/08/21 10:48:07;;;;;;;4.40;2.72;;;24.10;81.80;;;;;;5019046;28;20033;-81
2022/08/21 10:50:50;;;;;;;4.70;2.45;;;24.10;81.80;;;;;;5018913;28;20053;-80
2022/08/21 10:53:34;;;;;;;5.75;2.67;;;24.10;81.70;;;;;;5036416;28;20033;-80
2022/08/21 10:56:16;;;;;;;4.82;2.65;;;24.00;81.90;;;;;;5028906;28;20025;-80
2022/08/21 10:59:19;;;;;;;7.38;2.58;;;24.00;82.00;;;;;;5036355;28;20033;-79
2022/08/21 11:02:03;;;;;;;7.53;2.70;;;24.00;81.90;;;;;;5017593;28;20014;-80
2022/08/21 11:04:38;;;;;;;6.20;2.40;;;24.00;82.00;;;;;;5036212;28;20525;-80
2022/08/21 11:07:19;;;;;;;6.53;2.80;;;24.00;81.80;;;;;;5018291;28;20029;-80
2022/08/21 11:09:48;;;;;;;9.10;2.80;;;24.10;81.60;;;;;;5017971;28;20032;-80
2022/08/21 11:12:38;;;;;;;9.05;2.92;;;24.00;81.50;;;;;;5017844;28;20026;-80
2022/08/21 11:15:17;;;;;;;8.95;3.05;;;24.00;81.70;;;;;;5034559;28;20034;-82
2022/08/21 11:17:55;;;;;;;7.30;2.65;;;24.00;81.70;;;;;;5014066;28;20084;-85
2022/08/21 11:20:33;;;;;;;9.10;2.50;;;24.00;81.80;;;;;;5035181;28;20021;-82
2022/08/21 11:23:20;;;;;;;5.82;2.60;;;24.00;82.10;;;;;;5008674;28;20036;-81
2022/08/21 11:26:00;;;;;;;7.93;2.90;;;24.00;82.20;;;;;;5018451;28;20021;-81
2022/08/21 11:28:44;;;;;;;7.45;2.70;;;23.90;82.10;;;;;;5034894;28;20076;-82
2022/08/21 11:31:33;;;;;;;8.25;2.72;;;24.00;82.00;;;;;;5011900;28;20035;-81
2022/08/21 11:34:28;;;;;;;6.90;2.53;;;24.00;82.00;;;;;;5037986;28;20021;-80
2022/08/21 11:37:24;;;;;;;5.15;2.40;;;24.00;81.90;;;;;;5007420;28;20034;-83
2022/08/21 11:40:14;;;;;;;4.90;2.50;;;24.00;81.90;;;;;;5034181;28;20018;-80
2022/08/21 11:43:02;;;;;;;8.27;2.80;;;24.00;81.90;;;;;;5026912;28;20025;-80
2022/08/21 11:45:51;;;;;;;6.88;3.03;;;24.00;82.00;;;;;;5036356;28;20025;-79
2022/08/21 11:48:40;;;;;;;5.13;2.40;;;24.00;82.00;;;;;;5034557;28;20117;-79
2022/08/21 11:51:14;;;;;;;5.05;2.30;;;24.00;82.00;;;;;;5039443;28;20044;-81
2022/08/21 11:53:52;;;;;;;11.38;3.05;;;24.00;81.60;;;;;;5019208;28;20026;-81
2022/08/21 11:56:26;;;;;;;11.20;3.05;;;24.00;81.40;;;;;;5030503;28;20013;-78
2022/08/21 11:58:56;;;;;;;8.93;2.97;;;24.00;81.50;;;;;;5035822;28;20037;-78
2022/08/21 12:01:28;;;;;;;8.45;2.92;;;23.80;81.50;;;;;;5011683;28;20159;-78
2022/08/21 12:04:29;;;;;;;9.65;2.95;;;23.90;81.60;;;;;;5033834;28;20500;-81
2022/08/21 12:06:55;;;;;;;9.57;2.72;;;24.00;81.60;;;;;;5033918;28;20040;-78
2022/08/21 12:09:23;;;;;;;12.00;3.03;;;24.00;81.60;;;;;;5018983;28;20029;-79
2022/08/21 12:12:01;;;;;;;10.05;3.30;;;24.00;81.50;;;;;;5017667;28;20118;-82
2022/08/21 12:14:41;;;;;;;10.52;2.78;;;24.00;81.50;;;;;;5024932;28;20030;-80
2022/08/21 12:17:08;;;;;;;11.35;2.90;;;24.00;81.40;;;;;;5018074;28;20022;-79
2022/08/21 12:19:35;;;;;;;9.65;2.65;;;24.00;81.50;;;;;;5035036;28;20388;-78
2022/08/21 12:22:06;;;;;;;7.28;2.90;;;24.00;81.50;;;;;;5036136;28;20033;-79
2022/08/21 12:24:37;;;;;;;10.52;3.00;;;24.00;81.60;;;;;;5017675;28;20087;-78
2022/08/21 12:27:44;;;;;;;8.02;2.60;;;24.00;81.70;;;;;;5034966;28;20109;-79
2022/08/21 12:30:41;;;;;;;6.78;2.83;;;24.00;81.90;;;;;;5033909;28;20113;-78
2022/08/21 12:33:22;;;;;;;7.35;2.60;;;23.90;82.00;;;;;;5034265;28;20029;-78
2022/08/21 12:35:49;;;;;;;5.55;2.60;;;23.90;82.10;;;;;;5016990;28;20029;-78
2022/08/21 12:38:29;;;;;;;10.60;3.10;;;23.90;82.20;;;;;;5017094;28;20032;-78
2022/08/21 12:41:05;;;;;;;6.32;2.60;;;23.90;82.20;;;;;;5034041;28;20031;-78
2022/08/21 12:43:40;;;;;;;6.72;2.75;;;23.90;82.40;;;;;;5033923;28;20036;-78
2022/08/21 12:46:06;;;;;;;5.95;2.30;;;23.90;82.60;;;;;;5016573;28;20026;-78
2022/08/21 12:48:53;;;;;;;8.07;2.97;;;23.90;82.60;;;;;;5016216;28;20026;-78
2022/08/21 12:51:32;;;;;;;6.80;2.70;;;23.90;82.60;;;;;;5015904;28;20022;-78
2022/08/21 12:53:59;;;;;;;7.47;2.90;;;23.90;82.50;;;;;;5016752;28;20033;-78
2022/08/21 12:56:27;;;;;;;6.30;2.30;;;23.90;82.50;;;;;;5016201;28;20029;-78
2022/08/21 12:59:05;;;;;;;6.78;3.30;;;23.90;82.40;;;;;;5015894;28;20116;-78
2022/08/21 13:01:43;;;;;;;5.40;2.53;;;23.90;82.50;;;;;;5034209;28;20055;-78
2022/08/21 13:04:17;;;;;;;6.18;2.80;;;23.90;82.60;;;;;;5015985;28;20021;-78
2022/08/21 13:06:45;;;;;;;6.40;2.53;;;23.90;82.60;;;;;;5033206;28;20724;-78